Time;durP1;ratioP1;P1;durP2;ratioP2;P2;SDS_P1;SDS_P2;PMS_P1;PMS_P2;Temp;Humidity;BMP_temperature;BMP_pressure;BME280_temperature;BME280_humidity;BME280_pressure;Samples;Min_cycle;Max_cycle;Signal;HPM_P1;HPM_P2
2021/09/07 00:01:24;;;;;;;16.83;11.40;;;;;;;;;;5051643;28;20773;-82
2021/09/07 00:03:50;;;;;;;15.30;9.63;;;;;;;;;;5051464;28;20021;-81
2021/09/07 00:06:17;;;;;;;19.43;11.73;;;;;;;;;;5052279;28;20060;-81
2021/09/07 00:08:42;;;;;;;14.85;10.65;;;;;;;;;;5051992;28;20287;-81
2021/09/07 00:11:07;;;;;;;16.83;9.17;;;;;;;;;;5049628;28;20727;-81
2021/09/07 00:13:33;;;;;;;13.13;9.57;;;;;;;;;;5051140;28;21111;-81
2021/09/07 00:15:58;;;;;;;17.70;12.23;;;;;;;;;;5049015;28;20059;-81
2021/09/07 00:18:23;;;;;;;16.30;11.65;;;;;;;;;;5050153;28;20413;-81
2021/09/07 00:20:48;;;;;;;13.23;10.47;;;;;;;;;;5052020;28;20418;-81
2021/09/07 00:23:14;;;;;;;20.58;13.02;;;;;;;;;;5053123;28;20762;-82
2021/09/07 00:25:39;;;;;;;18.58;11.30;;;;;;;;;;5053713;28;20021;-81
2021/09/07 00:28:04;;;;;;;17.45;11.38;;;;;;;;;;5051028;28;20032;-82
2021/09/07 00:30:30;;;;;;;13.35;8.65;;;;;;;;;;5052188;28;20025;-82
2021/09/07 00:32:55;;;;;;;13.02;10.10;;;;;;;;;;5049524;28;20017;-81
2021/09/07 00:35:22;;;;;;;18.55;11.82;;;;;;;;;;5050941;28;20507;-82
2021/09/07 00:37:47;;;;;;;12.25;8.88;;;;;;;;;;5048844;28;20549;-81
2021/09/07 00:40:12;;;;;;;14.10;10.80;;;;;;;;;;5048920;28;20025;-81
2021/09/07 00:42:38;;;;;;;11.43;8.65;;;;;;;;;;5051489;28;20497;-82
2021/09/07 00:45:04;;;;;;;17.58;11.65;;;;;;;;;;5052768;28;20040;-82
2021/09/07 00:47:29;;;;;;;16.67;11.68;;;;;;;;;;5053446;28;20021;-82
2021/09/07 00:49:55;;;;;;;14.77;9.45;;;;;;;;;;5052161;28;20040;-82
2021/09/07 00:52:20;;;;;;;16.53;10.13;;;;;;;;;;5051705;28;20033;-82
2021/09/07 00:54:46;;;;;;;14.27;10.27;;;;;;;;;;5049144;28;20302;-81
2021/09/07 00:57:12;;;;;;;16.38;10.48;;;;;;;;;;5050539;28;20032;-81
2021/09/07 00:59:37;;;;;;;10.63;8.90;;;;;;;;;;5050319;28;20013;-81
2021/09/07 01:02:04;;;;;;;12.52;7.93;;;;;;;;;;5051711;28;20025;-82
2021/09/07 01:04:29;;;;;;;12.50;10.15;;;;;;;;;;5053452;28;20025;-81
2021/09/07 01:06:54;;;;;;;12.60;8.95;;;;;;;;;;5052791;28;20036;-81
2021/09/07 01:09:19;;;;;;;14.47;9.73;;;;;;;;;;5051988;28;20021;-81
2021/09/07 01:11:44;;;;;;;20.30;11.55;;;;;;;;;;5052352;28;20255;-82
2021/09/07 01:14:10;;;;;;;19.60;11.65;;;;;;;;;;5056199;28;20028;-81
2021/09/07 01:16:36;;;;;;;12.27;9.50;;;;;;;;;;5054368;28;20392;-82
2021/09/07 01:19:01;;;;;;;15.23;9.60;;;;;;;;;;5054687;28;20252;-81
2021/09/07 01:21:26;;;;;;;22.83;12.05;;;;;;;;;;5053174;28;20021;-81
2021/09/07 01:23:52;;;;;;;15.73;10.25;;;;;;;;;;5052800;28;20025;-81
2021/09/07 01:26:18;;;;;;;14.82;8.70;;;;;;;;;;5055512;28;20056;-81
2021/09/07 01:28:44;;;;;;;12.48;9.73;;;;;;;;;;5055617;28;20039;-81
2021/09/07 01:31:10;;;;;;;14.10;10.75;;;;;;;;;;5056488;28;20021;-81
2021/09/07 01:33:35;;;;;;;17.02;10.63;;;;;;;;;;5053096;28;20484;-81
2021/09/07 01:36:01;;;;;;;14.18;10.45;;;;;;;;;;5053252;28;20131;-81
2021/09/07 01:38:27;;;;;;;16.00;11.35;;;;;;;;;;5055103;28;20025;-81
2021/09/07 01:40:52;;;;;;;11.35;9.20;;;;;;;;;;5055497;28;20470;-82
2021/09/07 01:43:18;;;;;;;19.23;11.85;;;;;;;;;;5054656;28;20025;-82
2021/09/07 01:45:44;;;;;;;12.25;10.13;;;;;;;;;;5054412;28;20469;-81
2021/09/07 01:48:09;;;;;;;11.20;9.10;;;;;;;;;;5052804;28;20477;-81
2021/09/07 01:50:34;;;;;;;15.40;9.50;;;;;;;;;;5056418;28;20025;-81
2021/09/07 01:53:00;;;;;;;11.27;8.70;;;;;;;;;;5055896;28;20389;-81
2021/09/07 01:55:25;;;;;;;11.60;8.57;;;;;;;;;;5055275;28;20108;-81
2021/09/07 01:57:50;;;;;;;14.73;8.70;;;;;;;;;;5054922;28;20017;-82
2021/09/07 02:00:16;;;;;;;12.98;10.30;;;;;;;;;;5053919;28;20045;-80
2021/09/07 02:02:41;;;;;;;15.45;11.35;;;;;;;;;;5053497;28;20025;-81
2021/09/07 02:05:06;;;;;;;10.10;8.63;;;;;;;;;;5051686;28;20074;-81
2021/09/07 02:07:31;;;;;;;10.85;9.75;;;;;;;;;;5055246;28;20274;-82
2021/09/07 02:09:56;;;;;;;10.87;9.10;;;;;;;;;;5053001;28;20021;-81
2021/09/07 02:12:22;;;;;;;19.37;13.03;;;;;;;;;;5054646;28;20035;-81
2021/09/07 02:14:47;;;;;;;15.60;11.10;;;;;;;;;;5055996;28;20055;-81
2021/09/07 02:17:12;;;;;;;21.57;11.57;;;;;;;;;;5055085;28;20865;-81
2021/09/07 02:19:37;;;;;;;19.37;14.23;;;;;;;;;;5054391;28;20049;-81
2021/09/07 02:22:03;;;;;;;10.93;9.25;;;;;;;;;;5053914;28;20025;-82
2021/09/07 02:24:28;;;;;;;14.18;11.30;;;;;;;;;;5053457;28;20099;-81
2021/09/07 02:26:53;;;;;;;21.77;14.80;;;;;;;;;;5052713;28;20431;-81
2021/09/07 02:29:18;;;;;;;21.10;14.13;;;;;;;;;;5051038;28;20260;-80
2021/09/07 02:31:43;;;;;;;17.47;11.67;;;;;;;;;;5053725;28;20032;-81
2021/09/07 02:34:09;;;;;;;17.23;11.90;;;;;;;;;;5053734;28;20789;-82
2021/09/07 02:36:36;;;;;;;17.33;12.25;;;;;;;;;;5052573;28;20025;-81
2021/09/07 02:39:02;;;;;;;15.95;9.57;;;;;;;;;;5054090;28;20438;-81
2021/09/07 02:41:27;;;;;;;20.98;13.82;;;;;;;;;;5052977;28;20013;-81
2021/09/07 02:43:52;;;;;;;9.52;8.35;;;;;;;;;;5054510;28;20148;-81
2021/09/07 02:46:17;;;;;;;15.43;11.35;;;;;;;;;;5053513;28;20029;-81
2021/09/07 02:48:43;;;;;;;13.67;11.57;;;;;;;;;;5053168;28;20037;-81
2021/09/07 02:51:08;;;;;;;16.07;11.67;;;;;;;;;;5051084;28;20685;-81
2021/09/07 02:53:33;;;;;;;17.85;11.30;;;;;;;;;;5050839;28;20260;-81
2021/09/07 02:55:58;;;;;;;11.13;8.70;;;;;;;;;;5052630;28;20017;-81
2021/09/07 02:58:23;;;;;;;13.17;10.53;;;;;;;;;;5051938;28;20028;-81
2021/09/07 03:00:49;;;;;;;19.33;10.63;;;;;;;;;;5054551;28;20024;-82
2021/09/07 03:03:14;;;;;;;27.80;14.38;;;;;;;;;;5053442;28;20289;-81
2021/09/07 03:05:39;;;;;;;16.07;12.10;;;;;;;;;;5053864;28;20389;-81
2021/09/07 03:08:04;;;;;;;15.50;12.03;;;;;;;;;;5053612;28;20070;-81
2021/09/07 03:10:29;;;;;;;12.75;9.32;;;;;;;;;;5051163;28;20282;-81
2021/09/07 03:12:55;;;;;;;11.40;8.98;;;;;;;;;;5052391;28;20075;-80
2021/09/07 03:15:21;;;;;;;13.18;10.20;;;;;;;;;;5050304;28;20040;-80
2021/09/07 03:17:46;;;;;;;14.02;10.73;;;;;;;;;;5051398;28;20376;-80
2021/09/07 03:20:12;;;;;;;12.43;9.60;;;;;;;;;;5051308;28;20021;-80
2021/09/07 03:22:37;;;;;;;12.90;9.35;;;;;;;;;;5050961;28;20088;-81
2021/09/07 03:25:02;;;;;;;17.93;12.53;;;;;;;;;;5055714;28;20033;-81
2021/09/07 03:27:27;;;;;;;19.90;14.75;;;;;;;;;;5054033;28;20750;-81
2021/09/07 03:29:53;;;;;;;15.25;11.88;;;;;;;;;;5051870;28;20162;-81
2021/09/07 03:32:18;;;;;;;14.07;9.67;;;;;;;;;;5052799;28;20025;-81
2021/09/07 03:34:43;;;;;;;11.70;8.50;;;;;;;;;;5052020;28;20158;-81
2021/09/07 03:37:08;;;;;;;16.77;11.97;;;;;;;;;;5051405;28;20256;-81
2021/09/07 03:39:33;;;;;;;9.35;8.32;;;;;;;;;;5050097;28;20259;-81
2021/09/07 03:41:58;;;;;;;10.43;9.13;;;;;;;;;;5051215;28;20384;-81
2021/09/07 03:44:24;;;;;;;19.85;13.13;;;;;;;;;;5050451;28;20033;-81
2021/09/07 03:46:49;;;;;;;20.37;14.27;;;;;;;;;;5054564;28;20051;-81
2021/09/07 03:49:14;;;;;;;12.90;10.48;;;;;;;;;;5054694;28;20282;-81
2021/09/07 03:51:40;;;;;;;14.98;10.90;;;;;;;;;;5054280;28;20036;-81
2021/09/07 03:54:05;;;;;;;11.20;9.27;;;;;;;;;;5053287;28;20025;-81
2021/09/07 03:56:30;;;;;;;15.17;12.07;;;;;;;;;;5053104;28;20040;-81
2021/09/07 03:58:56;;;;;;;11.45;8.93;;;;;;;;;;5051684;28;20260;-81
2021/09/07 04:01:21;;;;;;;14.33;9.63;;;;;;;;;;5049993;28;20023;-80
2021/09/07 04:03:46;;;;;;;13.53;9.57;;;;;;;;;;5051407;28;20729;-81
2021/09/07 04:06:11;;;;;;;14.20;11.83;;;;;;;;;;5051242;28;20268;-81
2021/09/07 04:08:37;;;;;;;15.97;11.23;;;;;;;;;;5051029;28;20259;-81
2021/09/07 04:11:02;;;;;;;12.95;10.57;;;;;;;;;;5052235;28;20108;-81
2021/09/07 04:13:27;;;;;;;14.77;11.15;;;;;;;;;;5053998;28;20384;-82
2021/09/07 04:15:53;;;;;;;13.27;10.15;;;;;;;;;;5052957;28;20025;-81
2021/09/07 04:18:18;;;;;;;12.87;10.17;;;;;;;;;;5052845;28;20130;-81
2021/09/07 04:20:43;;;;;;;13.13;10.10;;;;;;;;;;5051571;28;20017;-82
2021/09/07 04:23:08;;;;;;;11.20;9.98;;;;;;;;;;5052345;28;20256;-81
2021/09/07 04:25:34;;;;;;;12.20;9.50;;;;;;;;;;5051446;28;20104;-82
2021/09/07 04:27:59;;;;;;;16.92;10.25;;;;;;;;;;5051140;28;20256;-81
2021/09/07 04:30:24;;;;;;;13.47;11.87;;;;;;;;;;5049248;28;20035;-80
2021/09/07 04:32:49;;;;;;;15.30;11.10;;;;;;;;;;5049112;28;20259;-81
2021/09/07 04:35:15;;;;;;;14.00;11.27;;;;;;;;;;5050753;28;20291;-81
2021/09/07 04:37:40;;;;;;;18.75;11.93;;;;;;;;;;5051753;28;20036;-81
2021/09/07 04:40:05;;;;;;;14.10;9.40;;;;;;;;;;5052387;28;20017;-81
2021/09/07 04:42:31;;;;;;;15.43;10.55;;;;;;;;;;5050665;28;20264;-82
2021/09/07 04:44:56;;;;;;;19.10;11.30;;;;;;;;;;5051723;28;20031;-81
2021/09/07 04:47:21;;;;;;;14.47;11.77;;;;;;;;;;5048988;28;20078;-81
2021/09/07 04:49:46;;;;;;;17.07;11.13;;;;;;;;;;5052214;28;20338;-81
2021/09/07 04:52:11;;;;;;;24.07;14.40;;;;;;;;;;5050828;28;20843;-81
2021/09/07 04:54:37;;;;;;;14.83;10.87;;;;;;;;;;5049415;28;20322;-81
2021/09/07 04:57:02;;;;;;;13.70;10.95;;;;;;;;;;5050414;28;20260;-81
2021/09/07 04:59:27;;;;;;;13.40;9.85;;;;;;;;;;5053353;28;20032;-81
2021/09/07 05:01:52;;;;;;;18.30;13.27;;;;;;;;;;5052329;28;20425;-81
2021/09/07 05:04:18;;;;;;;12.27;9.60;;;;;;;;;;5051838;28;20123;-81
2021/09/07 05:06:43;;;;;;;13.35;10.40;;;;;;;;;;5049404;28;20263;-81
2021/09/07 05:09:08;;;;;;;12.37;9.77;;;;;;;;;;5050648;28;20059;-80
2021/09/07 05:11:33;;;;;;;20.55;13.20;;;;;;;;;;5051192;28;20256;-81
2021/09/07 05:13:59;;;;;;;15.00;11.80;;;;;;;;;;5051706;28;20078;-80
2021/09/07 05:16:24;;;;;;;16.05;11.85;;;;;;;;;;5050578;28;20025;-81
2021/09/07 05:18:49;;;;;;;16.52;12.50;;;;;;;;;;5050974;28;20049;-81
2021/09/07 05:21:14;;;;;;;19.33;14.13;;;;;;;;;;5051308;28;20485;-82
2021/09/07 05:23:39;;;;;;;17.30;14.03;;;;;;;;;;5052988;28;20259;-82
2021/09/07 05:26:05;;;;;;;13.43;10.10;;;;;;;;;;5052298;28;20025;-81
2021/09/07 05:28:30;;;;;;;15.88;10.77;;;;;;;;;;5049894;28;20048;-81
2021/09/07 05:30:57;;;;;;;15.60;12.23;;;;;;;;;;5051150;28;20423;-81
2021/09/07 05:33:23;;;;;;;19.67;14.10;;;;;;;;;;5050519;28;20047;-81
2021/09/07 05:35:48;;;;;;;20.60;13.77;;;;;;;;;;5050343;28;20020;-81
2021/09/07 05:38:13;;;;;;;17.55;11.65;;;;;;;;;;5048465;28;20021;-81
2021/09/07 05:40:38;;;;;;;14.40;10.07;;;;;;;;;;5050220;28;20025;-81
2021/09/07 05:43:04;;;;;;;14.07;10.63;;;;;;;;;;5048151;28;20025;-82
2021/09/07 05:45:29;;;;;;;15.43;12.23;;;;;;;;;;5049721;28;20263;-81
2021/09/07 05:47:54;;;;;;;13.52;11.32;;;;;;;;;;5051630;28;20128;-81
2021/09/07 05:50:19;;;;;;;14.87;11.00;;;;;;;;;;5052897;28;20025;-81
2021/09/07 05:52:45;;;;;;;19.98;11.98;;;;;;;;;;5050944;28;20681;-81
2021/09/07 05:55:11;;;;;;;25.85;17.15;;;;;;;;;;5051436;28;20063;-81
2021/09/07 05:57:36;;;;;;;20.27;12.68;;;;;;;;;;5049318;28;20063;-82
2021/09/07 06:00:01;;;;;;;24.25;15.35;;;;;;;;;;5051988;28;20132;-82
2021/09/07 06:02:27;;;;;;;19.38;15.90;;;;;;;;;;5051831;28;20070;-81
2021/09/07 06:04:52;;;;;;;25.77;15.45;;;;;;;;;;5053321;28;20031;-80
2021/09/07 06:07:18;;;;;;;13.50;11.90;;;;;;;;;;5053119;28;20025;-81
2021/09/07 06:09:43;;;;;;;24.85;13.48;;;;;;;;;;5054993;28;20380;-82
2021/09/07 06:12:08;;;;;;;17.05;13.60;;;;;;;;;;5056714;28;20033;-81
2021/09/07 06:14:33;;;;;;;29.60;11.83;;;;;;;;;;5054345;28;20704;-81
2021/09/07 06:16:59;;;;;;;16.38;11.63;;;;;;;;;;5055259;28;21087;-81
2021/09/07 06:19:25;;;;;;;13.90;10.93;;;;;;;;;;5021961;28;20127;-81
2021/09/07 06:21:50;;;;;;;18.15;11.43;;;;;;;;;;5031011;28;20013;-82
2021/09/07 06:24:15;;;;;;;12.35;9.98;;;;;;;;;;5047868;28;20059;-82
2021/09/07 06:26:41;;;;;;;17.85;10.77;;;;;;;;;;5032134;28;20040;-82
2021/09/07 06:29:06;;;;;;;16.70;9.70;;;;;;;;;;5034391;28;20020;-82
2021/09/07 06:31:31;;;;;;;20.05;11.57;;;;;;;;;;5028470;28;20107;-82
2021/09/07 06:33:56;;;;;;;15.70;11.07;;;;;;;;;;5042926;28;20025;-81
2021/09/07 06:36:21;;;;;;;20.27;11.83;;;;;;;;;;5032237;28;20257;-81
2021/09/07 06:38:46;;;;;;;17.27;10.83;;;;;;;;;;5041666;28;20027;-81
2021/09/07 06:41:12;;;;;;;15.60;9.60;;;;;;;;;;5047613;28;20264;-82
2021/09/07 06:43:37;;;;;;;18.63;10.17;;;;;;;;;;5042917;28;20510;-81
2021/09/07 06:46:02;;;;;;;18.15;11.68;;;;;;;;;;5026010;28;20085;-81
2021/09/07 06:48:28;;;;;;;18.33;12.38;;;;;;;;;;5046006;28;20040;-81
2021/09/07 06:50:53;;;;;;;19.57;13.57;;;;;;;;;;5055274;28;20028;-82
2021/09/07 06:53:18;;;;;;;22.23;13.07;;;;;;;;;;5053932;28;20263;-82
2021/09/07 06:55:43;;;;;;;20.13;13.10;;;;;;;;;;5051497;28;20017;-82
2021/09/07 06:58:08;;;;;;;21.43;10.17;;;;;;;;;;5051218;28;20066;-82
2021/09/07 07:00:33;;;;;;;18.20;12.17;;;;;;;;;;5052715;28;20256;-82
2021/09/07 07:02:59;;;;;;;16.13;10.67;;;;;;;;;;5050846;28;20321;-82
2021/09/07 07:05:25;;;;;;;17.48;10.38;;;;;;;;;;5051972;28;20064;-82
2021/09/07 07:07:51;;;;;;;12.80;10.32;;;;;;;;;;5054134;28;20107;-82
2021/09/07 07:10:16;;;;;;;15.07;10.95;;;;;;;;;;5053325;28;20052;-81
2021/09/07 07:12:41;;;;;;;12.88;9.43;;;;;;;;;;5053423;28;20484;-82
2021/09/07 07:15:07;;;;;;;16.50;10.98;;;;;;;;;;5051996;28;20484;-81
2021/09/07 07:17:32;;;;;;;15.90;12.65;;;;;;;;;;5053537;28;20472;-82
2021/09/07 07:19:57;;;;;;;16.00;11.37;;;;;;;;;;5053233;28;20028;-82
2021/09/07 07:22:25;;;;;;;17.33;12.43;;;;;;;;;;5052475;28;20260;-82
2021/09/07 07:24:50;;;;;;;19.23;10.25;;;;;;;;;;5047803;28;20021;-82
2021/09/07 07:27:15;;;;;;;15.07;10.80;;;;;;;;;;5033853;28;20063;-82
2021/09/07 07:29:41;;;;;;;16.10;10.43;;;;;;;;;;5039973;28;20026;-82
2021/09/07 07:32:06;;;;;;;18.27;10.13;;;;;;;;;;5031581;28;20139;-82
2021/09/07 07:34:31;;;;;;;17.20;12.05;;;;;;;;;;5034375;28;20103;-82
2021/09/07 07:36:57;;;;;;;12.73;9.13;;;;;;;;;;5042863;28;20018;-82
2021/09/07 07:39:23;;;;;;;12.20;9.10;;;;;;;;;;5029971;28;20013;-82
2021/09/07 07:41:48;;;;;;;18.33;11.40;;;;;;;;;;5034384;28;20017;-82
2021/09/07 07:44:13;;;;;;;17.27;11.00;;;;;;;;;;5031758;28;20029;-82
2021/09/07 07:46:38;;;;;;;16.60;10.77;;;;;;;;;;5037192;28;20452;-82
2021/09/07 07:49:04;;;;;;;12.97;9.83;;;;;;;;;;5038914;28;20021;-82
2021/09/07 07:51:29;;;;;;;14.55;11.02;;;;;;;;;;5028685;28;20048;-82
2021/09/07 07:53:54;;;;;;;21.95;11.18;;;;;;;;;;5032480;28;20030;-82
2021/09/07 07:56:20;;;;;;;12.55;9.48;;;;;;;;;;5046883;28;20436;-81
2021/09/07 07:58:45;;;;;;;19.52;9.75;;;;;;;;;;5036845;28;20023;-82
2021/09/07 08:01:10;;;;;;;12.20;8.80;;;;;;;;;;5040811;28;20474;-82
2021/09/07 08:03:35;;;;;;;16.63;9.57;;;;;;;;;;5041576;28;20017;-81
2021/09/07 08:06:00;;;;;;;16.27;9.80;;;;;;;;;;5032917;28;20033;-81
2021/09/07 08:08:26;;;;;;;14.30;9.33;;;;;;;;;;5045258;28;20052;-82
2021/09/07 08:10:51;;;;;;;14.27;10.37;;;;;;;;;;5035248;28;20251;-82
2021/09/07 08:13:16;;;;;;;12.33;9.73;;;;;;;;;;5037244;28;20025;-81
2021/09/07 08:15:41;;;;;;;12.52;9.50;;;;;;;;;;5043348;28;20800;-81
2021/09/07 08:18:06;;;;;;;13.83;10.00;;;;;;;;;;5031064;28;20461;-81
2021/09/07 08:20:33;;;;;;;14.07;10.18;;;;;;;;;;5042448;28;20283;-81
2021/09/07 08:22:59;;;;;;;16.33;10.15;;;;;;;;;;5031840;28;20051;-82
2021/09/07 08:25:24;;;;;;;19.40;11.10;;;;;;;;;;5042279;28;20028;-82
2021/09/07 08:27:49;;;;;;;14.18;10.90;;;;;;;;;;5034532;28;20729;-82
2021/09/07 08:30:15;;;;;;;19.50;11.73;;;;;;;;;;5045886;28;20040;-82
2021/09/07 08:32:41;;;;;;;18.20;11.48;;;;;;;;;;5032729;28;20088;-81
2021/09/07 08:35:09;;;;;;;16.33;10.73;;;;;;;;;;5040383;28;20018;-82
2021/09/07 08:37:34;;;;;;;13.40;9.93;;;;;;;;;;5029865;28;20055;-82
2021/09/07 08:40:00;;;;;;;16.60;10.00;;;;;;;;;;5045491;28;20040;-82
2021/09/07 08:42:25;;;;;;;23.87;11.27;;;;;;;;;;5028602;28;20770;-81
2021/09/07 08:44:50;;;;;;;15.60;9.60;;;;;;;;;;5034731;28;20266;-82
2021/09/07 08:47:16;;;;;;;13.45;10.05;;;;;;;;;;5040122;28;20048;-82
2021/09/07 08:49:42;;;;;;;16.92;9.75;;;;;;;;;;5045837;28;20538;-82
2021/09/07 08:52:07;;;;;;;19.83;9.77;;;;;;;;;;5032456;28;20132;-82
2021/09/07 08:54:32;;;;;;;16.75;10.02;;;;;;;;;;5047332;28;20166;-82
2021/09/07 08:56:57;;;;;;;13.43;9.07;;;;;;;;;;5047791;28;20469;-82
2021/09/07 08:59:23;;;;;;;14.70;9.03;;;;;;;;;;5035013;28;20025;-82
2021/09/07 09:01:52;;;;;;;13.63;9.48;;;;;;;;;;5044285;28;20529;-82
2021/09/07 09:04:29;;;;;;;11.68;9.13;;;;;;;;;;5031277;28;20039;-82
2021/09/07 09:06:54;;;;;;;16.60;9.32;;;;;;;;;;5041197;28;20018;-81
2021/09/07 09:09:19;;;;;;;19.10;10.07;;;;;;;;;;5029347;28;20040;-82
2021/09/07 09:11:54;;;;;;;15.00;11.83;;;;;;;;;;5034493;28;20468;-82
2021/09/07 09:14:31;;;;;;;14.18;11.35;;;;;;;;;;5048254;28;20276;-82
2021/09/07 09:16:57;;;;;;;15.13;10.07;;;;;;;;;;5038616;28;20037;-82
2021/09/07 09:19:22;;;;;;;14.68;10.18;;;;;;;;;;5039220;28;20021;-82
2021/09/07 09:21:51;;;;;;;13.32;10.00;;;;;;;;;;5041341;28;20102;-82
2021/09/07 09:24:17;;;;;;;13.10;9.40;;;;;;;;;;5031924;28;20025;-82
2021/09/07 09:26:59;;;;;;;15.52;10.30;;;;;;;;;;5042989;28;20029;-82
2021/09/07 09:29:27;;;;;;;21.98;11.48;;;;;;;;;;5041417;28;20032;-82
2021/09/07 09:31:59;;;;;;;17.10;10.23;;;;;;;;;;5030513;28;20057;-82
2021/09/07 09:34:25;;;;;;;13.35;8.95;;;;;;;;;;5012271;28;20030;-82
2021/09/07 09:37:03;;;;;;;13.77;9.73;;;;;;;;;;5025962;28;20032;-82
2021/09/07 09:39:42;;;;;;;17.67;10.45;;;;;;;;;;5040669;28;20032;-82
2021/09/07 09:42:08;;;;;;;13.55;9.82;;;;;;;;;;5032289;28;20028;-82
2021/09/07 09:44:34;;;;;;;12.85;8.90;;;;;;;;;;5038255;28;20081;-82
2021/09/07 09:46:59;;;;;;;12.35;8.20;;;;;;;;;;5033839;28;20021;-82
2021/09/07 09:49:28;;;;;;;12.85;8.57;;;;;;;;;;5014479;28;20103;-82
2021/09/07 09:52:11;;;;;;;15.52;9.13;;;;;;;;;;5016605;28;20850;-81
2021/09/07 09:54:38;;;;;;;17.17;9.73;;;;;;;;;;5039061;28;20032;-81
2021/09/07 09:57:04;;;;;;;10.88;7.90;;;;;;;;;;5034838;28;20023;-81
2021/09/07 09:59:30;;;;;;;17.40;8.77;;;;;;;;;;5051852;28;20024;-82
2021/09/07 10:01:59;;;;;;;12.50;8.80;;;;;;;;;;5039103;28;20081;-82
2021/09/07 10:04:26;;;;;;;10.73;8.77;;;;;;;;;;5022406;28;20023;-82
2021/09/07 10:06:51;;;;;;;15.63;8.88;;;;;;;;;;5053487;28;20052;-82
2021/09/07 10:09:17;;;;;;;14.13;8.55;;;;;;;;;;5051728;28;20049;-82
2021/09/07 10:11:43;;;;;;;13.52;7.97;;;;;;;;;;5037812;28;20025;-82
2021/09/07 10:14:12;;;;;;;13.73;8.98;;;;;;;;;;5049760;28;20029;-82
2021/09/07 10:16:41;;;;;;;14.45;7.78;;;;;;;;;;5036562;28;20071;-82
2021/09/07 10:24:05;;;;;;;13.98;8.88;;;;;;;;;;5034387;28;20266;-82
2021/09/07 10:26:42;;;;;;;12.30;8.10;;;;;;;;;;5035772;28;20075;-82
2021/09/07 10:29:12;;;;;;;10.32;8.43;;;;;;;;;;5043665;28;20745;-82
2021/09/07 10:31:38;;;;;;;11.63;7.45;;;;;;;;;;5039882;28;20779;-82
2021/09/07 10:34:03;;;;;;;11.30;6.65;;;;;;;;;;5048946;28;20538;-82
2021/09/07 10:36:31;;;;;;;14.17;8.13;;;;;;;;;;5050048;28;20021;-82
2021/09/07 10:38:57;;;;;;;10.95;7.07;;;;;;;;;;5034107;28;20481;-83
2021/09/07 10:41:28;;;;;;;8.05;6.40;;;;;;;;;;5045460;28;20017;-82
2021/09/07 10:43:55;;;;;;;22.63;8.60;;;;;;;;;;5036366;28;20049;-82
2021/09/07 10:46:39;;;;;;;10.98;6.95;;;;;;;;;;5049039;28;20448;-82
2021/09/07 10:49:15;;;;;;;15.10;8.60;;;;;;;;;;5042044;28;20047;-82
2021/09/07 10:51:59;;;;;;;13.15;7.50;;;;;;;;;;5054494;28;20094;-82
2021/09/07 10:54:25;;;;;;;10.88;7.75;;;;;;;;;;5012654;28;20022;-82
2021/09/07 10:56:50;;;;;;;14.93;8.35;;;;;;;;;;5012022;28;20525;-82
2021/09/07 10:59:34;;;;;;;13.67;8.27;;;;;;;;;;5012609;28;20057;-82
2021/09/07 11:02:18;;;;;;;14.48;8.40;;;;;;;;;;5013127;28;20468;-82
2021/09/07 11:04:52;;;;;;;10.35;7.20;;;;;;;;;;5044801;28;20025;-82
2021/09/07 11:07:37;;;;;;;10.60;8.70;;;;;;;;;;5033547;28;20074;-83
2021/09/07 11:10:03;;;;;;;11.20;7.47;;;;;;;;;;5050656;28;20024;-83
2021/09/07 11:12:30;;;;;;;14.13;8.85;;;;;;;;;;5049940;28;20385;-82
2021/09/07 11:15:11;;;;;;;13.70;8.95;;;;;;;;;;5034970;28;20435;-81
2021/09/07 11:17:47;;;;;;;14.50;8.10;;;;;;;;;;5048526;28;20106;-83
2021/09/07 11:20:12;;;;;;;13.20;8.32;;;;;;;;;;5048733;28;20120;-83
2021/09/07 11:22:37;;;;;;;9.57;7.63;;;;;;;;;;5044004;28;20055;-84
2021/09/07 11:25:10;;;;;;;11.40;7.47;;;;;;;;;;5055758;28;20904;-83
2021/09/07 11:27:48;;;;;;;12.48;7.03;;;;;;;;;;5030766;28;20260;-82
2021/09/07 11:30:24;;;;;;;14.23;8.15;;;;;;;;;;5052508;28;20116;-83
2021/09/07 11:32:54;;;;;;;9.85;7.63;;;;;;;;;;5038741;28;20033;-85
2021/09/07 11:35:19;;;;;;;14.23;7.10;;;;;;;;;;5040198;28;20084;-86
2021/09/07 11:37:44;;;;;;;10.85;7.47;;;;;;;;;;5051724;28;20047;-84
2021/09/07 11:40:11;;;;;;;8.07;6.40;;;;;;;;;;5056840;28;20108;-85
2021/09/07 11:42:42;;;;;;;9.05;7.47;;;;;;;;;;5039305;28;20271;-81
2021/09/07 11:45:08;;;;;;;10.13;7.68;;;;;;;;;;5038754;28;20105;-81
2021/09/07 11:47:33;;;;;;;12.52;7.80;;;;;;;;;;5027488;28;20468;-81
2021/09/07 11:49:58;;;;;;;17.07;7.73;;;;;;;;;;5043909;28;20029;-81
2021/09/07 11:52:23;;;;;;;14.00;8.32;;;;;;;;;;5032787;28;20272;-81
2021/09/07 11:54:49;;;;;;;12.63;7.67;;;;;;;;;;5041740;28;20025;-81
2021/09/07 11:57:14;;;;;;;16.60;8.17;;;;;;;;;;5042311;28;20037;-81
2021/09/07 11:59:57;;;;;;;12.13;7.87;;;;;;;;;;5038759;28;20076;-81
2021/09/07 12:02:25;;;;;;;8.65;7.40;;;;;;;;;;5020660;28;20392;-81
2021/09/07 12:04:54;;;;;;;12.10;7.07;;;;;;;;;;5046773;28;20025;-81
2021/09/07 12:07:19;;;;;;;14.45;8.48;;;;;;;;;;5042857;28;20432;-82
2021/09/07 12:09:45;;;;;;;12.60;8.67;;;;;;;;;;5037050;28;20030;-82
2021/09/07 12:12:12;;;;;;;11.33;7.63;;;;;;;;;;5047883;28;20025;-81
2021/09/07 12:14:43;;;;;;;13.13;7.90;;;;;;;;;;5035272;28;20102;-82
2021/09/07 12:17:08;;;;;;;;;;;;;;;;;;5040604;28;20557;-82
2021/09/07 12:19:41;;;;;;;10.32;7.55;;;;;;;;;;5041948;28;20000;-82
2021/09/07 12:22:10;;;;;;;10.05;7.60;;;;;;;;;;5045666;28;20020;-81
2021/09/07 12:24:37;;;;;;;11.07;7.78;;;;;;;;;;5034927;28;20456;-81
2021/09/07 12:27:17;;;;;;;12.15;8.30;;;;;;;;;;5039541;28;20037;-81
2021/09/07 12:30:02;;;;;;;10.50;7.35;;;;;;;;;;5042402;28;20056;-81
2021/09/07 12:32:27;;;;;;;12.15;7.25;;;;;;;;;;5014241;28;20566;-80
2021/09/07 12:34:53;;;;;;;10.80;8.30;;;;;;;;;;5040344;28;20033;-81
2021/09/07 12:37:18;;;;;;;11.27;7.60;;;;;;;;;;5039386;28;20044;-81
2021/09/07 12:39:43;;;;;;;13.73;8.20;;;;;;;;;;5034299;28;20272;-80
2021/09/07 12:42:09;;;;;;;9.32;7.45;;;;;;;;;;5042328;28;20044;-81
2021/09/07 12:44:34;;;;;;;13.33;7.90;;;;;;;;;;5033924;28;20064;-82
2021/09/07 12:46:59;;;;;;;11.57;7.73;;;;;;;;;;5041100;28;20021;-81
2021/09/07 12:49:24;;;;;;;12.40;7.83;;;;;;;;;;5040860;28;20817;-81
2021/09/07 12:51:49;;;;;;;12.97;8.50;;;;;;;;;;5033484;28;20036;-81
2021/09/07 12:54:17;;;;;;;11.10;7.23;;;;;;;;;;5031923;28;20493;-81
2021/09/07 12:56:42;;;;;;;13.23;8.13;;;;;;;;;;5040713;28;20037;-81
2021/09/07 12:59:08;;;;;;;12.15;7.38;;;;;;;;;;5035174;28;20471;-81
2021/09/07 13:01:33;;;;;;;14.02;8.25;;;;;;;;;;5033919;28;20025;-81
2021/09/07 13:03:59;;;;;;;11.53;8.57;;;;;;;;;;5041380;28;20497;-81
2021/09/07 13:06:25;;;;;;;10.18;9.15;;;;;;;;;;5043096;28;20025;-80
2021/09/07 13:08:50;;;;;;;15.35;8.23;;;;;;;;;;5038585;28;20072;-81
2021/09/07 13:11:16;;;;;;;12.68;8.60;;;;;;;;;;5043557;28;20477;-81
2021/09/07 13:13:42;;;;;;;10.35;7.90;;;;;;;;;;5048260;28;20072;-81
2021/09/07 13:16:08;;;;;;;13.38;8.07;;;;;;;;;;5037692;28;20076;-81
2021/09/07 13:18:34;;;;;;;16.00;8.52;;;;;;;;;;5047855;28;20045;-82
2021/09/07 13:21:00;;;;;;;13.82;8.75;;;;;;;;;;5034694;28;20022;-81
2021/09/07 13:23:25;;;;;;;13.02;9.32;;;;;;;;;;5046909;28;20044;-81
2021/09/07 13:25:51;;;;;;;16.55;8.77;;;;;;;;;;5036688;28;20022;-81
2021/09/07 13:28:16;;;;;;;14.35;8.32;;;;;;;;;;5045551;28;20155;-81
2021/09/07 13:30:42;;;;;;;14.88;8.23;;;;;;;;;;5040538;28;20099;-82
2021/09/07 13:33:07;;;;;;;10.25;7.07;;;;;;;;;;5046095;28;20018;-82
2021/09/07 13:35:32;;;;;;;16.85;8.48;;;;;;;;;;5046120;28;20025;-81
2021/09/07 13:37:58;;;;;;;10.52;7.88;;;;;;;;;;5035489;28;20037;-82
2021/09/07 13:40:23;;;;;;;15.20;8.55;;;;;;;;;;5050967;28;20779;-81
2021/09/07 13:42:49;;;;;;;10.10;8.23;;;;;;;;;;5044012;28;20020;-81
2021/09/07 13:45:14;;;;;;;10.90;7.63;;;;;;;;;;5041398;28;20606;-81
2021/09/07 13:47:39;;;;;;;13.25;7.97;;;;;;;;;;5029706;28;20106;-81
2021/09/07 13:50:05;;;;;;;9.82;8.32;;;;;;;;;;5046889;28;20028;-81
2021/09/07 13:52:30;;;;;;;10.60;7.85;;;;;;;;;;5034854;28;20074;-81
2021/09/07 13:54:55;;;;;;;13.33;7.87;;;;;;;;;;5054371;28;20024;-81
2021/09/07 13:57:21;;;;;;;10.33;7.67;;;;;;;;;;5040058;28;20558;-81
2021/09/07 13:59:47;;;;;;;10.60;8.48;;;;;;;;;;5044956;28;20033;-81
2021/09/07 14:02:12;;;;;;;14.20;8.23;;;;;;;;;;5033061;28;20032;-82
2021/09/07 14:04:37;;;;;;;11.17;8.47;;;;;;;;;;5035753;28;20063;-82
2021/09/07 14:07:02;;;;;;;11.60;8.33;;;;;;;;;;5041670;28;20656;-81
2021/09/07 14:09:27;;;;;;;11.70;8.43;;;;;;;;;;5042042;28;20031;-81
2021/09/07 14:11:53;;;;;;;11.13;7.67;;;;;;;;;;5033566;28;20147;-81
2021/09/07 14:14:18;;;;;;;14.77;8.43;;;;;;;;;;5048145;28;20018;-82
2021/09/07 14:16:43;;;;;;;12.47;7.73;;;;;;;;;;5039411;28;20055;-82
2021/09/07 14:19:08;;;;;;;11.93;8.43;;;;;;;;;;5041595;28;20336;-81
2021/09/07 14:21:33;;;;;;;12.40;9.60;;;;;;;;;;5031061;28;20021;-81
2021/09/07 14:23:59;;;;;;;12.27;8.43;;;;;;;;;;5046006;28;20040;-81